createdAt,value
2023-04-13T00:00:22.451Z,5.90
2023-04-13T00:02:49.731Z,5.80
2023-04-13T00:05:17.026Z,5.90
2023-04-13T00:07:44.239Z,5.80
2023-04-13T00:10:11.495Z,5.90
2023-04-13T00:12:39.653Z,5.80
2023-04-13T00:15:08.061Z,5.80
2023-04-13T00:17:35.981Z,5.90
2023-04-13T00:20:03.216Z,5.80
2023-04-13T00:22:30.319Z,5.80
2023-04-13T00:24:57.534Z,5.80
2023-04-13T00:27:24.800Z,5.70
2023-04-13T00:29:52.108Z,5.70
2023-04-13T00:32:19.266Z,5.70
2023-04-13T00:34:46.398Z,5.70
2023-04-13T00:37:13.806Z,5.60
2023-04-13T00:39:41.737Z,5.60
2023-04-13T00:42:09.154Z,5.70
2023-04-13T00:44:36.693Z,5.70
2023-04-13T00:47:05.222Z,5.70
2023-04-13T00:49:36.178Z,5.60
2023-04-13T00:52:03.831Z,5.60
2023-04-13T00:54:32.772Z,5.60
2023-04-13T00:57:01.155Z,5.60
2023-04-13T00:59:29.512Z,5.60
2023-04-13T01:01:56.814Z,5.60
2023-04-13T01:04:26.022Z,5.60
2023-04-13T01:07:21.107Z,5.60
2023-04-13T01:10:28.365Z,5.60
2023-04-13T01:13:10.537Z,5.60
2023-04-13T01:15:44.379Z,5.50
2023-04-13T01:18:14.405Z,5.50
2023-04-13T01:20:46.217Z,5.50
2023-04-13T01:23:56.550Z,5.40
2023-04-13T01:26:32.430Z,5.40
2023-04-13T01:28:59.622Z,5.40
2023-04-13T01:31:27.310Z,5.30
2023-04-13T01:33:54.575Z,5.30
2023-04-13T01:36:22.406Z,5.30
2023-04-13T01:38:49.709Z,5.30
2023-04-13T01:41:16.862Z,5.30
2023-04-13T01:43:44.778Z,5.30
2023-04-13T01:46:13.933Z,5.30
2023-04-13T01:48:51.954Z,5.30
2023-04-13T01:51:24.861Z,5.30
2023-04-13T01:54:19.381Z,5.20
2023-04-13T01:56:48.006Z,5.30
2023-04-13T01:59:16.148Z,5.20
2023-04-13T02:01:43.634Z,5.30
2023-04-13T02:04:11.204Z,5.30
2023-04-13T02:06:38.615Z,5.20
2023-04-13T02:09:05.823Z,5.20
2023-04-13T02:11:34.574Z,5.20
2023-04-13T02:14:01.742Z,5.20
2023-04-13T02:16:28.957Z,5.20
2023-04-13T02:18:56.161Z,5.20
2023-04-13T02:21:23.671Z,5.10
2023-04-13T02:23:50.878Z,5.10
2023-04-13T02:26:18.254Z,5.00
2023-04-13T02:28:45.556Z,5.00
2023-04-13T02:31:12.878Z,5.00
2023-04-13T02:33:40.011Z,5.00
2023-04-13T02:36:08.148Z,5.10
2023-04-13T02:38:35.508Z,5.10
2023-04-13T02:41:03.054Z,5.10
2023-04-13T02:43:30.420Z,5.00
2023-04-13T02:45:58.058Z,5.00
2023-04-13T02:48:25.350Z,5.00
2023-04-13T02:50:54.213Z,5.00
2023-04-13T02:53:21.576Z,5.00
2023-04-13T02:55:48.960Z,5.10
2023-04-13T02:58:16.117Z,5.00
2023-04-13T03:00:43.236Z,5.10
2023-04-13T03:03:10.392Z,5.00
2023-04-13T03:05:38.150Z,4.90
2023-04-13T03:08:05.448Z,5.00
2023-04-13T03:10:32.644Z,5.00
2023-04-13T03:12:59.922Z,4.90
2023-04-13T03:15:27.564Z,4.90
2023-04-13T03:17:54.942Z,4.90
2023-04-13T03:20:22.386Z,4.90
2023-04-13T03:22:49.692Z,4.90
2023-04-13T03:25:17.042Z,5.00
2023-04-13T03:27:44.166Z,5.00
2023-04-13T03:30:11.937Z,5.00
2023-04-13T03:32:39.241Z,4.90
2023-04-13T03:35:06.891Z,4.90
2023-04-13T03:37:34.233Z,4.90
2023-04-13T03:40:01.728Z,4.90
2023-04-13T03:42:30.453Z,4.90
2023-04-13T03:44:58.634Z,4.90
2023-04-13T03:47:26.000Z,4.80
2023-04-13T03:49:53.425Z,4.80
2023-04-13T03:52:20.654Z,4.80
2023-04-13T03:54:47.879Z,3.90
2023-04-13T03:57:15.182Z,4.70
2023-04-13T03:59:42.364Z,4.70
2023-04-13T04:02:09.552Z,4.70
2023-04-13T04:04:36.791Z,4.70
2023-04-13T04:07:03.993Z,4.70
2023-04-13T04:09:31.719Z,4.70
2023-04-13T04:11:59.230Z,4.70
2023-04-13T04:14:26.378Z,4.70
2023-04-13T04:16:53.626Z,4.70
2023-04-13T04:19:20.859Z,4.70
2023-04-13T04:21:48.505Z,4.70
2023-04-13T04:24:17.475Z,4.70
2023-04-13T04:26:45.377Z,4.70
2023-04-13T04:29:12.588Z,4.70
2023-04-13T04:31:41.261Z,4.70
2023-04-13T04:34:08.447Z,4.60
2023-04-13T04:36:35.626Z,4.60
2023-04-13T04:39:03.059Z,4.60
2023-04-13T04:41:30.340Z,4.50
2023-04-13T04:43:57.717Z,4.40
2023-04-13T04:48:54.433Z,4.30
2023-04-13T04:51:21.769Z,4.20
2023-04-13T04:53:49.267Z,4.20
2023-04-13T04:56:16.492Z,4.20
2023-04-13T04:58:43.686Z,4.20
2023-04-13T05:01:10.892Z,4.10
2023-04-13T05:03:38.323Z,4.10
2023-04-13T05:06:05.919Z,4.10
2023-04-13T05:08:33.275Z,4.00
2023-04-13T05:11:00.459Z,3.90
2023-04-13T05:13:27.685Z,3.80
2023-04-13T05:15:54.963Z,3.80
2023-04-13T05:18:22.202Z,3.90
2023-04-13T05:20:49.273Z,3.80
2023-04-13T05:23:16.454Z,3.80
2023-04-13T05:25:43.619Z,3.70
2023-04-13T05:28:10.748Z,3.60
2023-04-13T05:30:37.887Z,3.60
2023-04-13T05:33:05.326Z,3.60
2023-04-13T05:35:32.571Z,3.60
2023-04-13T05:37:59.795Z,3.60
2023-04-13T05:40:27.069Z,3.70
2023-04-13T05:42:54.257Z,3.70
2023-04-13T05:45:21.765Z,3.60
2023-04-13T05:47:49.153Z,3.50
2023-04-13T05:50:16.347Z,3.40
2023-04-13T05:52:43.567Z,3.30
2023-04-13T05:55:11.193Z,3.30
2023-04-13T05:57:38.393Z,3.30
2023-04-13T06:00:06.648Z,3.20
2023-04-13T06:02:33.888Z,3.30
2023-04-13T06:05:01.338Z,3.30
2023-04-13T06:07:28.774Z,3.30
2023-04-13T06:09:55.960Z,3.00
2023-04-13T06:12:23.109Z,3.10
2023-04-13T06:14:50.644Z,3.10
2023-04-13T06:17:17.840Z,2.90
2023-04-13T06:19:44.996Z,2.90
2023-04-13T06:22:12.165Z,2.90
2023-04-13T06:24:39.242Z,2.90
2023-04-13T06:27:06.426Z,3.00
2023-04-13T06:29:33.681Z,3.00
2023-04-13T06:32:00.798Z,2.90
2023-04-13T06:34:27.974Z,3.00
2023-04-13T06:36:55.107Z,2.90
2023-04-13T06:39:22.223Z,3.00
2023-04-13T06:41:49.501Z,2.90
2023-04-13T06:44:18.396Z,2.90
2023-04-13T06:46:45.579Z,2.90
2023-04-13T06:49:13.059Z,3.00
2023-04-13T06:51:40.521Z,2.90
2023-04-13T06:54:07.989Z,2.90
2023-04-13T06:56:35.142Z,2.90
2023-04-13T06:59:02.919Z,3.00
2023-04-13T07:01:30.714Z,2.90
2023-04-13T07:03:58.001Z,2.60
2023-04-13T07:06:25.419Z,2.80
2023-04-13T07:08:52.573Z,2.80
2023-04-13T07:11:20.197Z,2.80
2023-04-13T07:13:47.500Z,2.80
2023-04-13T07:16:14.699Z,2.90
2023-04-13T07:18:41.898Z,3.30
2023-04-13T11:26:16.893Z,3.10
2023-04-13T11:28:47.914Z,3.20
2023-04-13T11:31:15.087Z,3.10
2023-04-13T11:33:42.300Z,3.10
2023-04-13T11:36:10.165Z,3.20
2023-04-13T11:38:40.495Z,3.20
2023-04-13T11:41:16.408Z,3.20
2023-04-13T11:43:45.446Z,3.20
2023-04-13T11:46:12.977Z,3.10
2023-04-13T11:48:41.146Z,3.20
2023-04-13T11:51:09.414Z,3.30
2023-04-13T11:53:36.702Z,3.20
2023-04-13T11:56:04.497Z,3.20
2023-04-13T11:58:32.197Z,3.20
2023-04-13T12:01:13.744Z,3.10
2023-04-13T12:03:56.844Z,3.00
2023-04-13T12:06:31.474Z,3.00
2023-04-13T12:09:10.124Z,3.00
2023-04-13T12:11:44.275Z,3.10
2023-04-13T12:19:27.512Z,2.90
2023-04-13T12:21:55.944Z,2.90
2023-04-13T12:24:35.102Z,3.00
2023-04-13T12:29:38.639Z,3.00
2023-04-13T12:32:13.838Z,3.00
2023-04-13T12:34:42.086Z,2.90
2023-04-13T12:37:11.076Z,2.90
2023-04-13T12:39:38.436Z,2.90
2023-04-13T12:42:05.838Z,2.80
2023-04-13T12:44:34.298Z,2.70
2023-04-13T12:47:02.068Z,2.60
2023-04-13T12:49:29.806Z,2.60
2023-04-13T12:51:57.261Z,2.60
2023-04-13T12:54:24.479Z,2.70
2023-04-13T12:56:51.631Z,2.60
2023-04-13T12:59:19.067Z,2.60
2023-04-13T13:01:46.387Z,2.60
2023-04-13T13:04:13.807Z,2.60
2023-04-13T13:06:41.056Z,2.50
2023-04-13T13:09:08.361Z,2.50
2023-04-13T13:11:35.764Z,2.40
2023-04-13T13:14:03.134Z,2.40
2023-04-13T13:16:31.308Z,2.50
2023-04-13T13:18:58.696Z,2.60
2023-04-13T13:21:26.342Z,2.60
2023-04-13T13:23:53.817Z,2.60
2023-04-13T13:26:24.484Z,2.50
2023-04-13T13:28:53.746Z,2.40
2023-04-13T13:31:21.159Z,2.50
2023-04-13T13:33:48.599Z,2.60
2023-04-13T13:36:16.122Z,2.60
2023-04-13T13:38:43.880Z,2.70
2023-04-13T13:41:11.239Z,2.70
2023-04-13T13:43:39.505Z,2.70
2023-04-13T13:46:07.084Z,2.80
2023-04-13T13:48:34.401Z,2.80
2023-04-13T13:51:01.626Z,2.80
2023-04-13T13:53:28.931Z,2.70
2023-04-13T13:55:56.208Z,2.70
2023-04-13T13:58:23.514Z,2.80
2023-04-13T14:00:50.749Z,2.70
2023-04-13T14:03:18.161Z,2.70
2023-04-13T14:05:45.510Z,2.70
2023-04-13T14:08:12.671Z,2.70
2023-04-13T14:10:40.236Z,2.70
2023-04-13T14:13:07.564Z,2.80
2023-04-13T14:15:34.864Z,2.80
2023-04-13T14:18:10.442Z,2.80
2023-04-13T14:20:39.613Z,2.80
2023-04-13T14:23:07.867Z,2.80
2023-04-13T14:25:35.280Z,2.80
2023-04-13T14:28:02.753Z,2.80
2023-04-13T14:30:30.084Z,2.70
2023-04-13T14:32:57.321Z,2.70
2023-04-13T14:35:24.619Z,2.60
2023-04-13T14:37:52.076Z,2.60
2023-04-13T14:40:19.673Z,2.70
2023-04-13T14:42:46.942Z,2.70
2023-04-13T14:45:14.246Z,2.60
2023-04-13T14:47:41.505Z,2.60
2023-04-13T14:50:09.319Z,2.60
2023-04-13T14:52:36.755Z,2.50
2023-04-13T14:55:04.890Z,2.50
2023-04-13T14:57:32.237Z,2.50
2023-04-13T14:59:59.458Z,2.50
2023-04-13T15:02:28.352Z,2.50
2023-04-13T15:04:56.068Z,2.50
2023-04-13T15:07:23.481Z,2.40
2023-04-13T15:09:50.761Z,2.50
2023-04-13T15:12:18.040Z,2.40
2023-04-13T15:14:45.993Z,2.50
2023-04-13T15:19:41.010Z,2.50
2023-04-13T15:22:09.122Z,2.50
2023-04-13T15:24:36.300Z,2.40
2023-04-13T15:27:03.563Z,2.30
2023-04-13T15:29:31.009Z,2.40
2023-04-13T15:31:58.941Z,2.30
2023-04-13T15:34:26.216Z,2.40
2023-04-13T15:36:53.948Z,2.40
2023-04-13T15:39:21.254Z,2.40
2023-04-13T15:41:49.021Z,2.40
2023-04-13T15:44:16.523Z,2.30
2023-04-13T15:46:44.029Z,2.30
2023-04-13T15:49:11.276Z,2.40
2023-04-13T15:51:38.515Z,2.30
2023-04-13T15:54:05.994Z,2.30
2023-04-13T15:56:33.248Z,2.30
2023-04-13T15:59:00.745Z,2.30
2023-04-13T16:01:28.303Z,2.30
2023-04-13T16:03:55.825Z,2.30
2023-04-13T16:06:23.271Z,2.10
2023-04-13T16:08:50.445Z,2.20
2023-04-13T16:11:17.711Z,2.10
2023-04-13T16:13:48.988Z,2.10
2023-04-13T16:16:17.325Z,2.00
2023-04-13T16:18:44.584Z,2.00
2023-04-13T16:21:11.782Z,2.10
2023-04-13T16:23:39.046Z,2.00
2023-04-13T16:26:09.610Z,2.00
2023-04-13T16:28:37.007Z,2.00
2023-04-13T16:31:08.508Z,2.00
2023-04-13T16:33:35.786Z,1.90
2023-04-13T16:36:03.011Z,1.90
2023-04-13T16:38:30.352Z,1.90
2023-04-13T16:40:57.769Z,1.90
2023-04-13T16:43:24.922Z,1.90
2023-04-13T16:45:52.177Z,1.90
2023-04-13T16:48:19.947Z,1.90
2023-04-13T16:50:47.410Z,1.80
2023-04-13T16:53:15.058Z,1.80
2023-04-13T16:55:42.470Z,1.90
2023-04-13T16:58:10.107Z,1.80
2023-04-13T17:00:37.543Z,1.80
2023-04-13T17:03:05.126Z,1.70
2023-04-13T17:05:32.561Z,1.80
2023-04-13T17:08:00.184Z,1.80
2023-04-13T17:10:27.735Z,1.80
2023-04-13T17:12:55.522Z,1.80
2023-04-13T17:15:23.499Z,1.70
2023-04-13T17:17:50.689Z,1.80
2023-04-13T17:20:18.755Z,1.70
2023-04-13T17:22:47.335Z,1.70
2023-04-13T17:25:15.164Z,1.70
2023-04-13T17:27:42.426Z,1.70
2023-04-13T17:30:10.597Z,1.70
2023-04-13T17:32:38.554Z,1.60
2023-04-13T17:35:06.855Z,1.60
2023-04-13T17:37:34.578Z,1.60
2023-04-13T17:40:02.034Z,1.60
2023-04-13T17:42:29.238Z,1.60
2023-04-13T17:44:56.642Z,1.60
2023-04-13T17:47:24.633Z,1.60
2023-04-13T17:49:51.973Z,1.60
2023-04-13T17:52:19.905Z,1.60
2023-04-13T17:54:50.469Z,1.60
2023-04-13T17:57:18.001Z,1.60
2023-04-13T17:59:45.267Z,1.60
2023-04-13T18:02:12.920Z,1.60
2023-04-13T18:04:40.736Z,1.60
2023-04-13T18:07:08.078Z,1.60
2023-04-13T18:09:35.744Z,1.60
2023-04-13T18:12:05.417Z,1.60
2023-04-13T18:14:33.040Z,1.60
2023-04-13T18:17:03.408Z,1.50
2023-04-13T18:19:34.066Z,1.50
2023-04-13T18:22:01.680Z,1.50
2023-04-13T18:24:29.190Z,1.40
2023-04-13T18:26:56.370Z,1.40
2023-04-13T18:29:23.634Z,1.40
2023-04-13T18:31:51.079Z,1.40
2023-04-13T18:34:18.348Z,1.40
2023-04-13T18:36:46.178Z,1.40
2023-04-13T18:39:13.328Z,1.50
2023-04-13T18:41:42.259Z,1.50
2023-04-13T18:44:09.867Z,1.50
2023-04-13T18:46:37.111Z,1.50
2023-04-13T18:49:04.906Z,1.50
2023-04-13T18:51:32.770Z,1.50
2023-04-13T18:54:00.371Z,1.50
2023-04-13T18:56:28.392Z,1.50
2023-04-13T18:58:55.807Z,1.60
2023-04-13T19:01:23.431Z,1.60
2023-04-13T19:03:51.001Z,1.60
2023-04-13T19:06:19.736Z,1.50
2023-04-13T19:08:47.129Z,1.60
2023-04-13T19:11:14.959Z,1.50
2023-04-13T19:13:42.527Z,1.50
2023-04-13T19:16:11.785Z,1.50
2023-04-13T19:18:39.137Z,1.50
2023-04-13T19:21:06.400Z,1.50
2023-04-13T19:23:34.000Z,1.40
2023-04-13T19:26:01.462Z,1.30
2023-04-13T19:28:28.922Z,1.40
2023-04-13T19:30:56.479Z,1.40
2023-04-13T19:33:24.157Z,1.30
2023-04-13T19:35:52.257Z,1.40
2023-04-13T19:38:19.997Z,1.40
2023-04-13T19:40:47.421Z,1.30
2023-04-13T19:43:14.866Z,1.30
2023-04-13T19:45:42.747Z,1.30
2023-04-13T19:48:10.229Z,1.30
2023-04-13T19:50:37.376Z,1.30
2023-04-13T19:53:05.397Z,1.30
2023-04-13T19:55:32.718Z,1.30
2023-04-13T19:58:00.576Z,1.40
2023-04-13T20:00:27.800Z,1.40
2023-04-13T20:02:55.618Z,1.40
2023-04-13T20:05:23.253Z,1.40
2023-04-13T20:07:50.949Z,1.40
2023-04-13T20:10:18.114Z,1.40
2023-04-13T20:12:46.106Z,1.30
2023-04-13T20:15:13.664Z,1.40
2023-04-13T20:17:41.611Z,1.40
2023-04-13T20:20:09.574Z,1.50
2023-04-13T20:22:37.255Z,1.40
2023-04-13T20:25:06.061Z,1.30
2023-04-13T20:27:33.998Z,1.40
2023-04-13T20:30:01.295Z,1.40
2023-04-13T20:32:28.552Z,1.40
2023-04-13T20:34:56.449Z,1.40
2023-04-13T20:37:24.166Z,1.30
2023-04-13T20:39:51.502Z,1.30
2023-04-13T20:42:20.535Z,1.20
2023-04-13T20:44:47.942Z,1.10
2023-04-13T20:47:16.527Z,1.20
2023-04-13T20:49:43.793Z,1.20
2023-04-13T20:52:11.247Z,1.30
2023-04-13T20:54:39.107Z,1.20
2023-04-13T20:57:06.572Z,1.20
2023-04-13T20:59:33.992Z,1.40
2023-04-13T21:02:01.479Z,1.30
2023-04-13T21:04:29.230Z,1.30
2023-04-13T21:06:56.661Z,1.30
2023-04-13T21:09:24.037Z,1.30
2023-04-13T21:11:51.639Z,1.30
2023-04-13T21:14:19.373Z,1.30
2023-04-13T21:16:47.206Z,1.20
2023-04-13T21:19:14.832Z,1.30
2023-04-13T21:21:42.041Z,1.20
2023-04-13T21:24:10.095Z,1.20
2023-04-13T21:26:37.591Z,1.20
2023-04-13T21:29:05.001Z,1.10
2023-04-13T21:34:00.400Z,0.90
2023-04-13T21:38:58.585Z,0.90
2023-04-13T21:41:26.426Z,0.90
2023-04-13T21:43:53.857Z,0.80
2023-04-13T21:46:21.421Z,0.80
2023-04-13T21:51:16.499Z,0.80
2023-04-13T21:53:43.879Z,0.80
2023-04-13T21:56:11.175Z,0.80
2023-04-13T21:58:46.217Z,0.90
2023-04-13T22:01:14.821Z,0.80
2023-04-13T22:03:46.654Z,0.80
2023-04-13T22:06:14.756Z,0.80
2023-04-13T22:08:42.056Z,0.80
2023-04-13T22:11:09.592Z,0.80
2023-04-13T22:13:36.955Z,0.80
2023-04-13T22:16:04.721Z,0.90
2023-04-13T22:18:32.054Z,0.90
2023-04-13T22:21:00.045Z,0.90
2023-04-13T22:23:27.739Z,0.80
2023-04-13T22:25:56.844Z,0.80
2023-04-13T22:28:25.473Z,0.80
2023-04-13T22:30:53.188Z,0.80
2023-04-13T22:33:21.224Z,0.70
2023-04-13T22:35:48.563Z,0.70
2023-04-13T22:38:19.247Z,0.70
2023-04-13T22:40:46.507Z,0.70
2023-04-13T22:43:13.730Z,0.70
2023-04-13T22:45:40.914Z,0.70
2023-04-13T22:48:08.186Z,0.70
2023-04-13T22:50:37.590Z,0.70
2023-04-13T22:53:05.050Z,0.70
2023-04-13T22:55:32.304Z,0.70
2023-04-13T22:57:59.577Z,0.80
2023-04-13T23:00:26.759Z,0.80
2023-04-13T23:02:54.112Z,0.80
2023-04-13T23:05:21.919Z,0.90
2023-04-13T23:07:50.292Z,0.90
2023-04-13T23:10:18.025Z,0.80
2023-04-13T23:12:46.514Z,0.80
2023-04-13T23:15:14.611Z,0.80
2023-04-13T23:17:41.945Z,0.80
2023-04-13T23:20:09.628Z,0.90
2023-04-13T23:22:37.710Z,0.80
2023-04-13T23:25:06.023Z,0.80
2023-04-13T23:27:33.547Z,0.80
2023-04-13T23:30:00.941Z,0.80
2023-04-13T23:32:28.157Z,0.80
2023-04-13T23:34:55.426Z,0.80
2023-04-13T23:37:22.991Z,0.80
2023-04-13T23:39:50.200Z,0.80
2023-04-13T23:42:20.566Z,0.90
2023-04-13T23:44:48.325Z,0.70
2023-04-13T23:47:15.813Z,0.70
2023-04-13T23:49:43.237Z,0.60
2023-04-13T23:52:10.545Z,0.60
2023-04-13T23:54:38.009Z,0.60
2023-04-13T23:57:05.267Z,0.60
2023-04-13T23:59:32.947Z,0.50
